createdAt,value
2022-12-01T14:37:14.041Z,101241.02
2022-12-01T14:45:47.236Z,101239.36
2022-12-01T14:54:17.943Z,101241.45
2022-12-01T15:03:00.349Z,101241.79
2022-12-01T15:11:25.212Z,101251.56
2022-12-01T15:19:46.720Z,101246.79
2022-12-01T15:28:11.124Z,101240.60
2022-12-01T15:36:32.806Z,101249.09
2022-12-01T15:45:21.568Z,101247.29
2022-12-01T15:53:57.558Z,101249.21
2022-12-01T16:02:34.439Z,101249.92
2022-12-01T16:11:17.734Z,101252.06
2022-12-01T16:19:43.546Z,101256.98
2022-12-01T16:28:17.353Z,101264.10
2022-12-01T16:36:40.459Z,101270.80
2022-12-01T16:45:04.030Z,101273.38
2022-12-01T16:53:27.030Z,101273.11
2022-12-01T17:01:50.056Z,101268.17
2022-12-01T17:10:14.193Z,101266.48
2022-12-01T17:18:38.875Z,101270.83
2022-12-01T17:27:01.919Z,101270.91
2022-12-01T17:35:25.653Z,101264.59
2022-12-01T17:43:49.059Z,101262.08
2022-12-01T17:52:12.134Z,101252.41
2022-12-01T18:00:35.130Z,101252.57
2022-12-01T18:09:00.549Z,101255.87
2022-12-01T18:17:23.551Z,101257.74
2022-12-01T18:25:46.497Z,101256.55
2022-12-01T18:34:11.296Z,101261.92
2022-12-01T18:42:34.216Z,101257.02
2022-12-01T18:51:02.648Z,101259.38
2022-12-01T18:59:27.283Z,101253.89
2022-12-01T19:07:53.196Z,101257.66
2022-12-01T19:16:18.145Z,101261.58
2022-12-01T19:24:44.752Z,101251.41
2022-12-01T19:33:10.050Z,101264.92
2022-12-01T19:41:33.066Z,101268.79
2022-12-01T19:49:56.140Z,101273.04
2022-12-01T19:58:19.532Z,101275.35
2022-12-01T20:06:43.381Z,101272.93
2022-12-01T20:15:08.905Z,101271.02
2022-12-01T20:23:31.996Z,101267.20
2022-12-01T20:31:57.406Z,101263.50
2022-12-01T20:40:20.542Z,101262.06
2022-12-01T20:48:44.190Z,101252.79
2022-12-01T20:57:07.824Z,101256.09
2022-12-01T21:05:33.233Z,101253.91
2022-12-01T21:13:56.860Z,101251.91
2022-12-01T21:22:20.295Z,101254.76
2022-12-01T21:30:43.431Z,101251.85
2022-12-01T21:39:14.737Z,101253.23
2022-12-01T21:47:38.156Z,101253.98
2022-12-01T21:56:02.148Z,101253.70
2022-12-01T22:04:30.157Z,101254.27
2022-12-01T22:12:53.428Z,101248.05
2022-12-01T22:21:22.734Z,101246.22
2022-12-01T22:29:48.050Z,101240.72
2022-12-01T22:38:31.009Z,101233.16
2022-12-01T22:46:58.816Z,101227.62
2022-12-01T22:55:21.739Z,101230.39
2022-12-01T23:03:44.868Z,101227.06
2022-12-01T23:12:10.839Z,101219.75
2022-12-01T23:20:35.143Z,101214.33
2022-12-01T23:29:00.540Z,101216.83
2022-12-01T23:37:44.832Z,101219.89
2022-12-01T23:46:11.087Z,101217.48
2022-12-01T23:54:37.648Z,101214.64
